Station: Jacup

  Atmospheric Gas Attenuation - ITU Rec 676-11   --------------- db/100km ---------------
Date Time Temp RH % AH g/m3 Dew Point Wind Direction Speed kph Gust kph Barometer mB Rainfall Since 9am 24GHz 47GHz 76GHz 122GHz 134GHz 241GHz
07 05:10 6.7 87 6.61 4.7 0 0 1026.7 0.2 15.6 25.2 35.7 93.1 81.0 276.2
07 05:00 6.6 87 6.57 4.6 0 0 1026.8 0.2 15.5 25.1 35.5 92.8 80.5 274.7
07 04:50 6.6 86 6.5 4.4 0 0 1026.6 0.2 15.4 25.0 35.2 92.0 79.6 271.3
07 04:40 6.7 86 6.54 4.5 6 6 1026.5 0.2 15.5 25.1 35.4 92.3 80.0 272.9
07 04:30 6.8 86 6.58 4.6 0 11 1026.7 0.2 15.6 25.1 35.5 92.7 80.4 274.5
07 04:20 6.8 86 6.58 4.6 0 0 1026.5 0.2 15.6 25.1 35.5 92.6 80.4 274.4
07 04:10 6.9 86 6.62 4.7 0 0 1026.5 0.2 15.6 25.1 35.6 93.0 80.9 276.0
07 04:00 7 86 6.67 4.8 0 0 1026.6 0.2 15.7 25.2 35.8 93.4 81.5 278.0
07 03:40 7.2 86 6.75 5 0 0 1026.2 0.2 15.9 25.2 36.0 94.0 82.3 281.0
07 03:10 7 88 6.82 5.2 7 9 1025.7 0.2 16.1 25.4 36.3 95.0 83.4 285.0
07 03:00 7 88 6.82 5.2 2 11 1025.8 0.2 16.1 25.4 36.4 95.0 83.4 285.0
07 02:50 7 89 6.9 5.3 0 0 1025.7 0.2 16.2 25.5 36.7 95.9 84.5 288.8
07 02:40 6.9 89 6.85 5.2 0 0 1025.7 0.2 16.1 25.5 36.5 95.4 84.0 286.8
07 02:30 6.8 90 6.89 5.3 0 6 1025.9 0.2 16.2 25.6 36.7 96.0 84.6 289.1
07 02:20 6.9 90 6.93 5.4 6 7 1025.9 0.2 16.3 25.6 36.9 96.3 85.1 290.7
07 02:10 6.5 90 6.75 5 7 7 1025.9 0.2 15.9 25.4 36.3 94.8 83.0 283.5
07 02:00 6.5 91 6.83 5.1 7 11 1026 0.2 16.1 25.6 36.6 95.7 84.1 287.4
07 01:50 6.3 91 6.74 4.9 9 11 1025.9 0.2 15.9 25.5 36.3 95.0 83.1 283.7
07 01:30 6.3 91 6.74 4.9 7 9 1026 0.2 15.9 25.5 36.4 95.0 83.1 283.8
07 01:20 6.2 91 6.7 4.8 7 9 1026 0.2 15.8 25.4 36.2 94.6 82.7 282.2
07 01:10 6 91 6.61 4.6 9 9 1026 0.2 15.7 25.3 35.9 93.9 81.6 278.6
07 01:00 6.3 92 6.81 5.1 9 11 1026.2 0.2 16.1 25.6 36.7 95.8 84.1 287.2
07 00:50 6.4 92 6.86 5.2 9 11 1026.2 0.2 16.2 25.7 36.8 96.2 84.7 289.2
07 00:40 6.4 92 6.86 5.2 9 11 1026.2 0.2 16.2 25.7 36.8 96.2 84.7 289.2
07 00:30 6.6 92 6.95 5.4 7 11 1026.5 0.2 16.4 25.8 37.1 97.0 85.7 292.9
07 00:20 7 93 7.21 5.9 6 6 1026.4 0.2 16.9 26.1 38.0 99.4 88.9 304.0
07 00:10 7.1 93 7.26 6 9 9 1026.4 0.2 17.0 26.1 38.2 99.8 89.4 306.0
07 00:00 7 93 7.21 5.9 9 11 1026.6 0.2 16.9 26.1 38.0 99.4 88.9 304.0
06 23:50 6.9 93 7.16 5.8 9 11 1026.6 0.2 16.8 26.0 37.9 99.0 88.3 302.0
06 23:40 6.8 94 7.19 5.9 7 9 1026.6 0.2 16.9 26.1 38.0 99.5 88.8 303.8
06 23:30 6.8 94 7.19 5.9 7 11 1026.8 0.2 16.9 26.1 38.0 99.5 88.8 303.9
06 23:20 6.8 94 7.19 5.9 7 7 1026.7 0.2 16.9 26.1 38.0 99.5 88.8 303.9
06 23:10 6.9 94 7.24 6 7 7 1026.8 0.2 17.0 26.2 38.2 99.9 89.4 305.9
06 23:00 6.9 94 7.24 6 6 6 1027.1 0.2 17.0 26.2 38.2 99.9 89.4 306.0
06 22:50 6.7 94 7.15 5.8 6 7 1027 0.2 16.8 26.1 37.9 99.2 88.4 302.4
06 22:40 6.9 94 7.24 6 6 7 1027.1 0.2 17.0 26.2 38.2 99.9 89.4 306.0
06 22:30 6.9 94 7.24 6 7 11 1027.3 0.2 17.0 26.2 38.2 100.0 89.5 306.1
06 22:20 6.9 94 7.24 6 11 13 1027.2 0.2 17.0 26.2 38.2 99.9 89.5 306.0
06 22:10 6.3 94 6.96 5.4 9 11 1027.3 0.2 16.4 25.9 37.3 97.6 86.2 294.7
06 22:00 6 93 6.75 5 7 7 1027.7 0.2 16.0 25.6 36.6 95.6 83.7 285.7
06 21:50 5.6 93 6.58 4.6 7 7 1027.5 0.2 15.6 25.5 36.1 94.2 81.8 278.9
06 21:40 5.5 93 6.54 4.5 6 7 1027.6 0.2 15.5 25.4 36.0 93.9 81.3 277.3
06 21:30 5.9 93 6.71 4.9 7 11 1027.9 0.2 15.9 25.6 36.5 95.3 83.3 284.2
06 21:20 5.7 93 6.62 4.7 9 11 1027.7 0.2 15.7 25.5 36.2 94.5 82.2 280.5
06 21:10 5.9 92 6.64 4.7 9 9 1027.8 0.2 15.7 25.5 36.2 94.5 82.3 280.8
06 21:00 6.2 93 6.84 5.2 7 7 1028 0.2 16.1 25.8 36.9 96.4 84.7 289.4
06 20:50 6.1 92 6.73 4.9 7 7 1028 0.2 15.9 25.6 36.5 95.3 83.3 284.5
06 20:40 6.2 92 6.77 5 7 7 1028 0.2 16.0 25.6 36.6 95.6 83.8 286.0
06 20:30 6.2 92 6.77 5 7 9 1028.1 0.2 16.0 25.6 36.6 95.6 83.8 286.1
06 20:20 6.6 92 6.95 5.4 7 7 1028.1 0.2 16.4 25.8 37.2 97.2 85.8 293.3
06 20:10 6.7 92 6.99 5.5 7 7 1028.1 0.2 16.4 25.9 37.3 97.5 86.3 294.9
06 20:00 6.9 92 7.09 5.7 6 7 1028.1 0.2 16.7 26.0 37.6 98.4 87.4 299.0
06 19:50 7.3 92 7.27 6.1 6 7 1027.8 0.2 17.0 26.2 38.2 99.8 89.4 306.1
06 19:40 7.6 92 7.42 6.4 7 7 1027.8 0.2 17.3 26.3 38.7 101.1 91.2 312.2
06 19:30 7.6 92 7.42 6.4 7 13 1028 0.2 17.3 26.3 38.7 101.2 91.2 312.2
06 19:20 7.5 91 7.29 6.1 7 9 1027.7 0.2 17.1 26.1 38.2 99.8 89.5 306.2
06 19:10 7.4 91 7.24 6 7 9 1027.5 0.2 17.0 26.1 38.0 99.3 88.9 304.1
06 19:00 7.6 90 7.25 6.1 7 11 1027.8 0.2 17.0 26.0 38.0 99.2 88.8 303.9
06 18:50 7.6 90 7.25 6.1 7 9 1027.5 0.2 17.0 26.0 37.9 99.2 88.8 303.8
06 18:40 7.8 89 7.27 6.1 9 13 1027.3 0.2 17.0 26.0 37.9 99.1 88.8 304.0
06 18:30 8.1 89 7.41 6.4 11 13 1027.4 0.2 17.3 26.1 38.4 100.3 90.4 309.6
06 18:20 8.5 88 7.52 6.6 11 15 1027.1 0.2 17.5 26.2 38.6 101.0 91.4 313.2
06 18:10 8.7 87 7.53 6.7 11 13 1027.1 0.2 17.5 26.2 38.6 100.9 91.3 312.9
06 18:00 9 86 7.58 6.8 13 19 1027.2 0.2 17.6 26.2 38.6 101.1 91.7 314.1
06 17:50 9.4 84 7.6 6.8 15 17 1026.8 0.2 17.6 26.1 38.5 100.7 91.4 313.4
06 17:40 10.1 81 7.66 7 19 22 1026.7 0.2 17.7 25.9 38.4 100.5 91.4 313.4
06 17:30 10.2 79 7.52 6.7 15 24 1026.8 0.2 17.4 25.7 37.8 98.8 89.4 306.4
06 17:20 10.3 79 7.57 6.8 15 19 1026.5 0.2 17.5 25.7 37.9 99.2 90.0 308.3
06 17:10 10.6 78 7.61 6.9 20 24 1026.4 0.2 17.6 25.7 37.9 99.3 90.1 309.0
06 17:00 11.2 74 7.5 6.7 19 28 1026.5 0.2 17.3 25.4 37.2 97.3 88.0 301.6
06 16:50 11.7 70 7.32 6.4 20 26 1026.1 0.2 16.9 24.9 36.3 94.8 85.0 291.3
06 16:40 12.1 70 7.51 6.8 19 24 1026 0.2 17.3 25.1 36.8 96.3 87.1 298.5
06 16:30 12.1 70 7.51 6.8 19 28 1026.1 0.2 17.3 25.1 36.8 96.3 87.1 298.5
06 16:20 12.5 71 7.81 7.4 19 20 1025.8 0.2 18.0 25.5 37.8 99.0 90.6 310.7
06 16:10 12.2 73 7.88 7.5 15 19 1025.9 0.2 18.1 25.7 38.2 100.1 91.8 315.1
06 16:00 11.6 75 7.8 7.3 19 26 1025.9 0.2 18.0 25.7 38.2 100.0 91.5 313.8
06 15:50 11.4 75 7.7 7.1 13 17 1025.8 0.2 17.8 25.6 37.9 99.2 90.4 309.9
06 15:40 11.8 71 7.47 6.7 22 26 1025.9 0.2 17.3 25.1 36.8 96.2 86.9 297.7
06 15:30 12.1 68 7.29 6.4 19 30 1026 0.2 16.9 24.7 35.9 94.0 84.2 288.4
06 15:20 12.4 68 7.43 6.7 19 22 1025.9 0.2 17.1 24.9 36.4 95.1 85.7 293.7
06 15:10 12.8 67 7.51 6.8 17 20 1026 0.2 17.3 24.9 36.5 95.4 86.3 295.9
06 15:00 12.4 68 7.43 6.7 17 28 1026.2 0.2 17.1 24.9 36.4 95.1 85.7 293.7
06 14:50 11.8 70 7.37 6.5 20 28 1026.2 0.2 17.0 25.0 36.4 95.2 85.6 293.2
06 14:40 12 71 7.57 6.9 13 17 1026.3 0.2 17.5 25.2 37.1 97.1 88.0 301.7
06 14:30 12.4 69 7.54 6.9 17 26 1026.3 0.2 17.4 25.1 36.8 96.3 87.2 298.8
06 14:20 12.5 62 6.82 5.4 17 20 1026.1 0.2 15.8 23.9 34.0 88.6 77.8 265.9
06 14:10 13.1 64 7.3 6.5 15 19 1026.2 0.2 16.8 24.5 35.6 92.9 83.3 285.3
06 14:00 12.8 65 7.28 6.4 19 28 1026.3 0.2 16.8 24.6 35.6 93.1 83.4 285.5
06 13:50 12.7 68 7.57 7 20 28 1026.1 0.2 17.4 25.0 36.8 96.2 87.2 299.0
06 13:40 13.3 64 7.39 6.6 11 15 1026 0.2 17.0 24.6 35.8 93.6 84.2 288.6
06 13:30 12.7 62 6.9 5.6 19 28 1026.3 0.2 16.0 24.0 34.2 89.2 78.6 268.8
06 13:20 12.4 64 6.99 5.8 20 26 1026.2 0.2 16.2 24.2 34.7 90.5 80.0 273.9
06 13:10 12.9 68 7.66 7.1 19 22 1026.2 0.2 17.6 25.1 37.1 96.9 88.2 302.4
06 13:00 12.7 69 7.68 7.2 15 20 1026.3 0.2 17.7 25.2 37.2 97.4 88.7 304.1
06 12:50 12.4 74 8.09 7.9 15 20 1026.3 0.2 18.6 26.0 39.0 102.2 94.4 324.2
06 12:40 12 74 7.89 7.5 22 26 1026.3 0.2 18.1 25.8 38.4 100.5 92.2 316.5
06 12:30 12.8 65 7.28 6.4 17 26 1026.5 0.2 16.8 24.6 35.6 93.1 83.4 285.6
06 12:20 12.9 70 7.89 7.6 13 15 1026.4 0.2 18.1 25.5 38.0 99.4 91.2 312.9
06 12:10 12.3 69 7.49 6.8 17 24 1026.5 0.2 17.3 25.0 36.7 95.9 86.6 296.9
06 12:00 12.8 67 7.51 6.8 19 28 1026.7 0.2 17.3 24.9 36.5 95.5 86.4 296.0

Last Refresh: 07-Aug-2020 06:54:23

Most of the information presented on this site is sourced from the Bureau of Meteorology.  Copyright in all material sourced from the Bureau of Meteorology resides with the Commonwealth of Australia.